TPC1496 KMHV-KTUS
Flight info
| Callsign | TPC1496 |
|---|---|
| Flight time | 1h 4m |
| Altitude | 35000 |
| Route | PMD J65 KOFFA J50 GBN DINGO6 |
| Aircraft | A20N/M-SDE2E3FGHIRWXY/LB1 |
Departure
| Time | 2026-04-24 00:28 |
|---|---|
| Airport | Mojave Air & Space Port (KMHV) |
Arrival
| Time | 2026-04-24 01:33 |
|---|---|
| Airport | Tucson International Airport (KTUS) |
| Time | Latitude | Longitude | Altitude | Speed | Heading |
|---|---|---|---|---|---|
| 2026-04-24 00:16 | 35.05737 | -118.15334 | 2765 ft | 0 kts | 91° |
| 2026-04-24 00:21 | 35.05737 | -118.15333 | 2765 ft | 0 kts | 91° |
| 2026-04-24 00:22 | 35.05737 | -118.15323 | 2764 ft | 3 kts | 91° |
| 2026-04-24 00:22 | 35.05737 | -118.15319 | 2764 ft | 0 kts | 91° |
| 2026-04-24 00:22 | 35.05739 | -118.15307 | 2764 ft | 5 kts | 78° |
| 2026-04-24 00:23 | 35.05753 | -118.15225 | 2762 ft | 15 kts | 80° |
| 2026-04-24 00:23 | 35.05758 | -118.15069 | 2759 ft | 21 kts | 88° |
| 2026-04-24 00:23 | 35.05839 | -118.14983 | 2758 ft | 18 kts | 329° |
| 2026-04-24 00:23 | 35.05931 | -118.15088 | 2759 ft | 18 kts | 316° |
| 2026-04-24 00:24 | 35.06018 | -118.15191 | 2764 ft | 16 kts | 316° |
| 2026-04-24 00:24 | 35.06095 | -118.15281 | 2768 ft | 14 kts | 316° |
| 2026-04-24 00:24 | 35.06165 | -118.15366 | 2773 ft | 15 kts | 314° |
| 2026-04-24 00:24 | 35.06241 | -118.15459 | 2779 ft | 16 kts | 315° |
| 2026-04-24 00:25 | 35.06319 | -118.15553 | 2782 ft | 15 kts | 315° |
| 2026-04-24 00:25 | 35.06392 | -118.15641 | 2786 ft | 14 kts | 315° |
| 2026-04-24 00:25 | 35.06466 | -118.15730 | 2787 ft | 19 kts | 315° |
| 2026-04-24 00:25 | 35.06571 | -118.15855 | 2793 ft | 21 kts | 316° |
| 2026-04-24 00:26 | 35.06670 | -118.15976 | 2795 ft | 19 kts | 313° |
| 2026-04-24 00:26 | 35.06757 | -118.16085 | 2801 ft | 17 kts | 316° |
| 2026-04-24 00:26 | 35.06851 | -118.16104 | 2804 ft | 15 kts | 34° |
| 2026-04-24 00:26 | 35.06872 | -118.15985 | 2803 ft | 19 kts | 132° |
| 2026-04-24 00:27 | 35.06853 | -118.15962 | 2800 ft | 0 kts | 135° |
| 2026-04-24 00:27 | 35.06852 | -118.15961 | 2800 ft | 2 kts | 135° |
| 2026-04-24 00:27 | 35.06679 | -118.15753 | 2788 ft | 73 kts | 135° |
| 2026-04-24 00:27 | 35.06154 | -118.15121 | 2767 ft | 136 kts | 136° |
| 2026-04-24 00:28 | 35.05353 | -118.14155 | 2740 ft | 185 kts | 136° |
| 2026-04-24 00:28 | 35.04463 | -118.13068 | 3400 ft | 178 kts | 135° |
| 2026-04-24 00:28 | 35.03576 | -118.11968 | 4066 ft | 186 kts | 136° |
| 2026-04-24 00:28 | 35.02647 | -118.10846 | 4786 ft | 194 kts | 137° |
| 2026-04-24 00:29 | 35.01626 | -118.09677 | 5323 ft | 213 kts | 146° |
| 2026-04-24 00:29 | 35.00194 | -118.09017 | 5849 ft | 232 kts | 174° |
| 2026-04-24 00:29 | 34.98509 | -118.08855 | 6440 ft | 254 kts | 180° |
| 2026-04-24 00:29 | 34.96663 | -118.08806 | 7036 ft | 275 kts | 181° |
| 2026-04-24 00:30 | 34.94720 | -118.08742 | 7910 ft | 283 kts | 180° |
| 2026-04-24 00:30 | 34.92737 | -118.08636 | 8925 ft | 287 kts | 179° |
| 2026-04-24 00:30 | 34.90720 | -118.08501 | 9921 ft | 293 kts | 178° |
| 2026-04-24 00:30 | 34.88641 | -118.08348 | 10571 ft | 310 kts | 178° |
| 2026-04-24 00:31 | 34.86398 | -118.08175 | 10973 ft | 334 kts | 178° |
| 2026-04-24 00:31 | 34.84014 | -118.07987 | 11572 ft | 349 kts | 178° |
| 2026-04-24 00:31 | 34.81609 | -118.07795 | 12489 ft | 353 kts | 179° |
| 2026-04-24 00:31 | 34.79143 | -118.07600 | 13379 ft | 358 kts | 179° |
| 2026-04-24 00:32 | 34.76639 | -118.07406 | 14219 ft | 363 kts | 179° |
| 2026-04-24 00:32 | 34.74104 | -118.07212 | 15025 ft | 367 kts | 180° |
| 2026-04-24 00:32 | 34.71535 | -118.07015 | 15654 ft | 372 kts | 180° |
| 2026-04-24 00:32 | 34.68940 | -118.06817 | 16138 ft | 376 kts | 180° |
| 2026-04-24 00:33 | 34.66337 | -118.06287 | 16977 ft | 385 kts | 165° |
| 2026-04-24 00:33 | 34.63914 | -118.04802 | 17707 ft | 399 kts | 147° |
| 2026-04-24 00:33 | 34.61888 | -118.02416 | 18402 ft | 412 kts | 129° |
| 2026-04-24 00:33 | 34.60478 | -117.99356 | 19027 ft | 421 kts | 113° |
| 2026-04-24 00:34 | 34.59559 | -117.95956 | 19677 ft | 426 kts | 107° |
| 2026-04-24 00:34 | 34.58744 | -117.92488 | 20321 ft | 430 kts | 107° |
| 2026-04-24 00:34 | 34.57866 | -117.88990 | 20960 ft | 434 kts | 109° |
| 2026-04-24 00:34 | 34.56924 | -117.85538 | 21590 ft | 438 kts | 110° |
| 2026-04-24 00:35 | 34.55910 | -117.82029 | 22225 ft | 442 kts | 111° |
| 2026-04-24 00:35 | 34.54865 | -117.78509 | 22835 ft | 447 kts | 111° |
| 2026-04-24 00:35 | 34.53794 | -117.74944 | 23443 ft | 451 kts | 112° |
| 2026-04-24 00:35 | 34.52713 | -117.71356 | 23977 ft | 455 kts | 112° |
| 2026-04-24 00:36 | 34.51623 | -117.67743 | 24510 ft | 458 kts | 112° |
| 2026-04-24 00:36 | 34.50525 | -117.64099 | 25015 ft | 462 kts | 112° |
| 2026-04-24 00:36 | 34.49416 | -117.60422 | 25519 ft | 466 kts | 112° |
| 2026-04-24 00:36 | 34.48298 | -117.56719 | 26015 ft | 469 kts | 112° |
| 2026-04-24 00:37 | 34.47172 | -117.52992 | 26489 ft | 473 kts | 112° |
| 2026-04-24 00:37 | 34.46032 | -117.49221 | 26958 ft | 477 kts | 112° |
| 2026-04-24 00:37 | 34.44888 | -117.45444 | 27402 ft | 480 kts | 112° |
| 2026-04-24 00:37 | 34.43732 | -117.41632 | 27834 ft | 483 kts | 112° |
| 2026-04-24 00:38 | 34.42581 | -117.37840 | 28245 ft | 487 kts | 112° |
| 2026-04-24 00:38 | 34.41790 | -117.35237 | 28524 ft | 489 kts | 112° |
| 2026-04-24 00:39 | 34.41029 | -117.32733 | 28788 ft | 491 kts | 113° |
| 2026-04-24 00:39 | 34.39844 | -117.28842 | 29159 ft | 495 kts | 113° |
| 2026-04-24 00:39 | 34.38643 | -117.24903 | 29524 ft | 498 kts | 113° |
| 2026-04-24 00:39 | 34.37435 | -117.20948 | 29893 ft | 502 kts | 113° |
| 2026-04-24 00:40 | 34.36220 | -117.16974 | 30221 ft | 505 kts | 113° |
| 2026-04-24 00:40 | 34.35034 | -117.13102 | 30546 ft | 508 kts | 113° |
| 2026-04-24 00:40 | 34.33804 | -117.09086 | 30876 ft | 511 kts | 113° |
| 2026-04-24 00:40 | 34.32548 | -117.04993 | 31238 ft | 513 kts | 113° |
| 2026-04-24 00:41 | 34.31323 | -117.01001 | 31686 ft | 512 kts | 114° |
| 2026-04-24 00:41 | 34.30081 | -116.96964 | 32151 ft | 512 kts | 114° |
| 2026-04-24 00:41 | 34.28842 | -116.92934 | 32603 ft | 511 kts | 114° |
| 2026-04-24 00:41 | 34.27603 | -116.88911 | 33048 ft | 510 kts | 114° |
| 2026-04-24 00:42 | 34.26363 | -116.84888 | 33497 ft | 509 kts | 114° |
| 2026-04-24 00:42 | 34.25126 | -116.80885 | 33909 ft | 508 kts | 114° |
| 2026-04-24 00:42 | 34.23888 | -116.76883 | 34277 ft | 508 kts | 114° |
| 2026-04-24 00:42 | 34.22645 | -116.72873 | 34615 ft | 507 kts | 114° |
| 2026-04-24 00:43 | 34.21406 | -116.68881 | 34826 ft | 507 kts | 114° |
| 2026-04-24 00:43 | 34.20169 | -116.64896 | 34904 ft | 506 kts | 114° |
| 2026-04-24 00:43 | 34.17703 | -116.56979 | 34900 ft | 506 kts | 114° |
| 2026-04-24 00:44 | 34.15219 | -116.49023 | 34898 ft | 506 kts | 114° |
| 2026-04-24 00:44 | 34.12735 | -116.41088 | 34894 ft | 505 kts | 114° |
| 2026-04-24 00:45 | 34.10242 | -116.33142 | 34898 ft | 505 kts | 115° |
| 2026-04-24 00:45 | 34.07745 | -116.25207 | 34911 ft | 506 kts | 115° |
| 2026-04-24 00:46 | 34.05239 | -116.17264 | 34927 ft | 507 kts | 115° |
| 2026-04-24 00:46 | 34.02742 | -116.09367 | 34941 ft | 507 kts | 115° |
| 2026-04-24 00:47 | 34.00223 | -116.01419 | 34947 ft | 507 kts | 115° |
| 2026-04-24 00:47 | 33.97702 | -115.93488 | 34946 ft | 507 kts | 115° |
| 2026-04-24 00:48 | 33.95193 | -115.85613 | 34941 ft | 506 kts | 115° |
| 2026-04-24 00:48 | 33.92661 | -115.77694 | 34928 ft | 506 kts | 115° |
| 2026-04-24 00:49 | 33.90132 | -115.69800 | 34921 ft | 505 kts | 115° |
| 2026-04-24 00:49 | 33.87593 | -115.61901 | 34912 ft | 505 kts | 115° |
| 2026-04-24 00:50 | 33.85071 | -115.54070 | 34904 ft | 505 kts | 115° |
| 2026-04-24 00:50 | 33.82529 | -115.46189 | 34893 ft | 505 kts | 115° |
| 2026-04-24 00:51 | 33.79978 | -115.38313 | 34884 ft | 505 kts | 115° |
| 2026-04-24 00:51 | 33.77414 | -115.30428 | 34880 ft | 506 kts | 115° |
| 2026-04-24 00:52 | 33.74849 | -115.22549 | 34883 ft | 506 kts | 115° |
| 2026-04-24 00:52 | 33.72275 | -115.14663 | 34887 ft | 507 kts | 115° |
| 2026-04-24 00:53 | 33.70130 | -115.08108 | 34888 ft | 508 kts | 115° |
| 2026-04-24 00:53 | 33.67124 | -114.98942 | 34890 ft | 508 kts | 115° |
| 2026-04-24 00:54 | 33.64743 | -114.91702 | 34891 ft | 508 kts | 115° |
| 2026-04-24 00:54 | 33.62563 | -114.85089 | 34885 ft | 508 kts | 115° |
| 2026-04-24 00:55 | 33.60120 | -114.77146 | 34878 ft | 508 kts | 108° |
| 2026-04-24 00:55 | 33.58943 | -114.68808 | 34881 ft | 512 kts | 97° |
| 2026-04-24 00:56 | 33.58207 | -114.60308 | 34868 ft | 512 kts | 97° |
| 2026-04-24 00:56 | 33.57443 | -114.51803 | 34870 ft | 512 kts | 97° |
| 2026-04-24 00:57 | 33.56675 | -114.43318 | 34867 ft | 512 kts | 97° |
| 2026-04-24 00:58 | 33.55512 | -114.30583 | 34862 ft | 512 kts | 97° |
| 2026-04-24 00:58 | 33.54739 | -114.22179 | 34865 ft | 512 kts | 97° |
| 2026-04-24 00:59 | 33.53957 | -114.13744 | 34868 ft | 512 kts | 97° |
| 2026-04-24 00:59 | 33.53164 | -114.05260 | 34869 ft | 512 kts | 97° |
| 2026-04-24 01:00 | 33.52366 | -113.96771 | 34879 ft | 512 kts | 97° |
| 2026-04-24 01:00 | 33.51560 | -113.88279 | 34901 ft | 512 kts | 97° |
| 2026-04-24 01:01 | 33.50766 | -113.79968 | 34926 ft | 512 kts | 97° |
| 2026-04-24 01:01 | 33.49950 | -113.71490 | 34951 ft | 512 kts | 98° |
| 2026-04-24 01:02 | 33.49125 | -113.62992 | 34964 ft | 512 kts | 98° |
| 2026-04-24 01:02 | 33.48303 | -113.54572 | 34964 ft | 512 kts | 98° |
| 2026-04-24 01:03 | 33.47463 | -113.46032 | 34947 ft | 513 kts | 98° |
| 2026-04-24 01:03 | 33.46311 | -113.37682 | 34921 ft | 509 kts | 110° |
| 2026-04-24 01:03 | 33.44945 | -113.33795 | 34901 ft | 503 kts | 123° |
| 2026-04-24 01:04 | 33.43015 | -113.30345 | 34878 ft | 495 kts | 135° |
| 2026-04-24 01:04 | 33.38418 | -113.24239 | 34843 ft | 493 kts | 137° |
| 2026-04-24 01:05 | 33.33824 | -113.18117 | 34840 ft | 494 kts | 137° |
| 2026-04-24 01:05 | 33.29261 | -113.12024 | 34838 ft | 495 kts | 137° |
| 2026-04-24 01:06 | 33.24656 | -113.05885 | 34843 ft | 496 kts | 137° |
| 2026-04-24 01:06 | 33.20040 | -112.99745 | 34848 ft | 496 kts | 137° |
| 2026-04-24 01:07 | 33.15417 | -112.93605 | 34856 ft | 497 kts | 138° |
| 2026-04-24 01:07 | 33.10781 | -112.87458 | 34866 ft | 498 kts | 138° |
| 2026-04-24 01:08 | 33.06136 | -112.81310 | 34875 ft | 499 kts | 138° |
| 2026-04-24 01:08 | 33.01536 | -112.75226 | 34385 ft | 495 kts | 138° |
| 2026-04-24 01:08 | 32.99231 | -112.72185 | 33766 ft | 495 kts | 138° |
| 2026-04-24 01:09 | 32.97098 | -112.68942 | 33000 ft | 502 kts | 127° |
| 2026-04-24 01:09 | 32.95487 | -112.65225 | 32211 ft | 509 kts | 115° |
| 2026-04-24 01:09 | 32.94485 | -112.61166 | 31483 ft | 513 kts | 102° |
| 2026-04-24 01:09 | 32.94105 | -112.56962 | 30964 ft | 509 kts | 94° |
| 2026-04-24 01:10 | 32.93955 | -112.52779 | 30444 ft | 504 kts | 94° |
| 2026-04-24 01:10 | 32.93777 | -112.48634 | 29909 ft | 498 kts | 95° |
| 2026-04-24 01:10 | 32.93520 | -112.44544 | 29309 ft | 493 kts | 97° |
| 2026-04-24 01:10 | 32.93201 | -112.40489 | 28699 ft | 488 kts | 97° |
| 2026-04-24 01:11 | 32.92851 | -112.36484 | 28092 ft | 484 kts | 98° |
| 2026-04-24 01:11 | 32.92489 | -112.32523 | 27516 ft | 480 kts | 98° |
| 2026-04-24 01:11 | 32.92125 | -112.28601 | 26958 ft | 476 kts | 98° |
| 2026-04-24 01:11 | 32.91762 | -112.24701 | 26393 ft | 472 kts | 97° |
| 2026-04-24 01:12 | 32.91403 | -112.20835 | 25842 ft | 468 kts | 97° |
| 2026-04-24 01:12 | 32.91046 | -112.17000 | 25300 ft | 464 kts | 97° |
| 2026-04-24 01:12 | 32.90696 | -112.13252 | 24786 ft | 460 kts | 97° |
| 2026-04-24 01:12 | 32.90341 | -112.09465 | 24260 ft | 456 kts | 97° |
| 2026-04-24 01:13 | 32.89989 | -112.05730 | 23750 ft | 452 kts | 97° |
| 2026-04-24 01:13 | 32.89639 | -112.02021 | 23197 ft | 449 kts | 97° |
| 2026-04-24 01:13 | 32.89292 | -111.98345 | 22652 ft | 444 kts | 97° |
| 2026-04-24 01:13 | 32.88903 | -111.94723 | 22099 ft | 439 kts | 103° |
| 2026-04-24 01:14 | 32.87927 | -111.91325 | 21544 ft | 431 kts | 120° |
| 2026-04-24 01:14 | 32.86263 | -111.88432 | 20983 ft | 419 kts | 137° |
| 2026-04-24 01:14 | 32.84067 | -111.86241 | 20441 ft | 407 kts | 152° |
| 2026-04-24 01:14 | 32.81691 | -111.84522 | 19912 ft | 401 kts | 155° |
| 2026-04-24 01:15 | 32.79288 | -111.82844 | 19392 ft | 399 kts | 154° |
| 2026-04-24 01:15 | 32.76945 | -111.81112 | 18882 ft | 397 kts | 152° |
| 2026-04-24 01:15 | 32.74652 | -111.79321 | 18220 ft | 392 kts | 151° |
| 2026-04-24 01:15 | 32.72412 | -111.77507 | 17430 ft | 388 kts | 150° |
| 2026-04-24 01:16 | 32.70207 | -111.75691 | 16660 ft | 383 kts | 150° |
| 2026-04-24 01:16 | 32.68034 | -111.73893 | 15901 ft | 378 kts | 150° |
| 2026-04-24 01:16 | 32.65912 | -111.72138 | 15169 ft | 374 kts | 150° |
| 2026-04-24 01:16 | 32.63791 | -111.70385 | 14444 ft | 370 kts | 150° |
| 2026-04-24 01:17 | 32.61693 | -111.68652 | 13795 ft | 364 kts | 150° |
| 2026-04-24 01:17 | 32.59621 | -111.66943 | 13035 ft | 360 kts | 150° |
| 2026-04-24 01:17 | 32.57569 | -111.65256 | 12333 ft | 359 kts | 150° |
| 2026-04-24 01:17 | 32.55587 | -111.63465 | 11868 ft | 358 kts | 142° |
| 2026-04-24 01:18 | 32.53891 | -111.61336 | 11636 ft | 351 kts | 132° |
| 2026-04-24 01:18 | 32.52465 | -111.59052 | 11499 ft | 337 kts | 129° |
| 2026-04-24 01:18 | 32.51103 | -111.56866 | 11282 ft | 325 kts | 130° |
| 2026-04-24 01:18 | 32.49761 | -111.54739 | 11030 ft | 318 kts | 130° |
| 2026-04-24 01:19 | 32.48435 | -111.52646 | 10948 ft | 321 kts | 130° |
| 2026-04-24 01:19 | 32.47092 | -111.50528 | 10945 ft | 321 kts | 130° |
| 2026-04-24 01:19 | 32.45755 | -111.48415 | 10923 ft | 319 kts | 130° |
| 2026-04-24 01:19 | 32.44428 | -111.46316 | 10707 ft | 318 kts | 130° |
| 2026-04-24 01:20 | 32.43107 | -111.44225 | 10377 ft | 316 kts | 130° |
| 2026-04-24 01:20 | 32.41796 | -111.42150 | 10025 ft | 314 kts | 130° |
| 2026-04-24 01:20 | 32.40489 | -111.40087 | 9640 ft | 312 kts | 129° |
| 2026-04-24 01:20 | 32.39187 | -111.38034 | 9205 ft | 311 kts | 129° |
| 2026-04-24 01:21 | 32.37899 | -111.36000 | 8858 ft | 306 kts | 129° |
| 2026-04-24 01:21 | 32.36628 | -111.33995 | 8484 ft | 304 kts | 129° |
| 2026-04-24 01:21 | 32.35406 | -111.31967 | 8128 ft | 301 kts | 126° |
| 2026-04-24 01:21 | 32.34274 | -111.29909 | 7976 ft | 298 kts | 124° |
| 2026-04-24 01:22 | 32.33150 | -111.27828 | 7942 ft | 301 kts | 124° |
| 2026-04-24 01:22 | 32.31983 | -111.25779 | 7940 ft | 299 kts | 133° |
| 2026-04-24 01:22 | 32.30540 | -111.24076 | 7828 ft | 296 kts | 139° |
| 2026-04-24 01:22 | 32.29046 | -111.22416 | 7553 ft | 294 kts | 139° |
| 2026-04-24 01:23 | 32.27558 | -111.20767 | 7163 ft | 293 kts | 139° |
| 2026-04-24 01:23 | 32.26091 | -111.19137 | 7004 ft | 284 kts | 139° |
| 2026-04-24 01:23 | 32.24679 | -111.17568 | 6895 ft | 273 kts | 139° |
| 2026-04-24 01:23 | 32.23328 | -111.16064 | 6815 ft | 260 kts | 139° |
| 2026-04-24 01:24 | 32.22049 | -111.14626 | 6666 ft | 249 kts | 139° |
| 2026-04-24 01:24 | 32.20803 | -111.13229 | 6399 ft | 245 kts | 139° |
| 2026-04-24 01:24 | 32.19572 | -111.11850 | 6081 ft | 242 kts | 139° |
| 2026-04-24 01:24 | 32.18356 | -111.10498 | 5973 ft | 241 kts | 139° |
| 2026-04-24 01:25 | 32.17117 | -111.09130 | 5959 ft | 244 kts | 139° |
| 2026-04-24 01:25 | 32.15875 | -111.07742 | 5958 ft | 246 kts | 139° |
| 2026-04-24 01:25 | 32.14639 | -111.06362 | 5957 ft | 243 kts | 139° |
| 2026-04-24 01:25 | 32.13413 | -111.05022 | 5976 ft | 234 kts | 139° |
| 2026-04-24 01:26 | 32.12276 | -111.03781 | 5991 ft | 212 kts | 140° |
| 2026-04-24 01:26 | 32.11229 | -111.02602 | 5990 ft | 207 kts | 139° |
| 2026-04-24 01:26 | 32.10194 | -111.01440 | 5984 ft | 209 kts | 139° |
| 2026-04-24 01:26 | 32.09130 | -111.00262 | 5986 ft | 213 kts | 139° |
| 2026-04-24 01:27 | 32.08058 | -110.99066 | 5987 ft | 211 kts | 139° |
| 2026-04-24 01:27 | 32.07002 | -110.97883 | 5982 ft | 209 kts | 139° |
| 2026-04-24 01:27 | 32.05938 | -110.96701 | 5987 ft | 210 kts | 139° |
| 2026-04-24 01:27 | 32.04877 | -110.95514 | 5990 ft | 212 kts | 139° |
| 2026-04-24 01:28 | 32.03814 | -110.94314 | 5985 ft | 211 kts | 139° |
| 2026-04-24 01:28 | 32.02756 | -110.93116 | 5987 ft | 209 kts | 139° |
| 2026-04-24 01:28 | 32.01729 | -110.91894 | 5979 ft | 211 kts | 128° |
| 2026-04-24 01:28 | 32.01241 | -110.90282 | 5948 ft | 211 kts | 92° |
| 2026-04-24 01:29 | 32.01576 | -110.88639 | 5613 ft | 206 kts | 61° |
| 2026-04-24 01:29 | 32.02249 | -110.87162 | 5156 ft | 207 kts | 59° |
| 2026-04-24 01:29 | 32.03076 | -110.85815 | 4988 ft | 205 kts | 34° |
| 2026-04-24 01:29 | 32.04355 | -110.85292 | 4685 ft | 194 kts | 351° |
| 2026-04-24 01:30 | 32.05431 | -110.85995 | 4343 ft | 171 kts | 308° |
| 2026-04-24 01:30 | 32.06023 | -110.87109 | 4152 ft | 151 kts | 298° |
| 2026-04-24 01:30 | 32.06558 | -110.88063 | 4022 ft | 131 kts | 308° |
| 2026-04-24 01:30 | 32.07198 | -110.88792 | 3756 ft | 128 kts | 312° |
| 2026-04-24 01:31 | 32.07846 | -110.89547 | 3542 ft | 133 kts | 311° |
| 2026-04-24 01:31 | 32.08507 | -110.90323 | 3297 ft | 137 kts | 312° |
| 2026-04-24 01:31 | 32.09158 | -110.91098 | 3056 ft | 126 kts | 315° |
| 2026-04-24 01:31 | 32.09773 | -110.91794 | 2835 ft | 120 kts | 315° |
| 2026-04-24 01:32 | 32.10351 | -110.92461 | 2669 ft | 111 kts | 312° |
| 2026-04-24 01:32 | 32.10847 | -110.93041 | 2631 ft | 98 kts | 312° |
| 2026-04-24 01:32 | 32.11265 | -110.93540 | 2618 ft | 68 kts | 314° |
| 2026-04-24 01:32 | 32.11542 | -110.93857 | 2606 ft | 51 kts | 317° |
| 2026-04-24 01:33 | 32.11773 | -110.94093 | 2599 ft | 35 kts | 340° |
| 2026-04-24 01:33 | 32.11850 | -110.94100 | 2592 ft | 0 kts | 1° |
| 2026-04-24 01:34 | 32.11860 | -110.94100 | 2595 ft | 6 kts | 1° |
| 2026-04-24 01:34 | 32.11908 | -110.94058 | 2587 ft | 12 kts | 88° |
| 2026-04-24 01:34 | 32.11895 | -110.93960 | 2597 ft | 13 kts | 68° |
| 2026-04-24 01:35 | 32.11911 | -110.93840 | 2595 ft | 15 kts | 83° |
| 2026-04-24 01:35 | 32.11917 | -110.93798 | 2599 ft | 0 kts | 79° |